createdAt,value
2022-11-02T00:00:50.849Z,13.66
2022-11-02T00:01:50.887Z,13.59
2022-11-02T00:02:50.914Z,13.57
2022-11-02T00:03:50.778Z,13.63
2022-11-02T00:04:50.758Z,13.66
2022-11-02T00:05:50.729Z,13.66
2022-11-02T00:06:50.708Z,13.73
2022-11-02T00:07:50.686Z,13.57
2022-11-02T00:08:50.666Z,13.67
2022-11-02T00:09:50.658Z,13.67
2022-11-02T00:10:50.613Z,13.66
2022-11-02T00:11:50.593Z,13.70
2022-11-02T00:12:50.571Z,13.66
2022-11-02T00:13:50.545Z,13.70
2022-11-02T00:14:50.521Z,13.66
2022-11-02T00:15:50.496Z,13.71
2022-11-02T00:16:50.481Z,13.66
2022-11-02T00:17:50.499Z,13.73
2022-11-02T00:18:50.438Z,13.67
2022-11-02T00:19:50.412Z,13.85
2022-11-02T00:20:50.386Z,13.89
2022-11-02T00:21:50.358Z,13.82
2022-11-02T00:22:50.341Z,13.82
2022-11-02T00:23:50.318Z,13.91
2022-11-02T00:24:50.291Z,13.85
2022-11-02T00:25:50.357Z,13.92
2022-11-02T00:26:50.245Z,13.92
2022-11-02T00:27:50.229Z,13.95
2022-11-02T00:28:50.198Z,13.92
2022-11-02T00:29:50.178Z,13.97
2022-11-02T00:30:50.150Z,13.97
2022-11-02T00:31:50.129Z,14.02
2022-11-02T00:32:50.105Z,13.92
2022-11-02T00:33:50.082Z,14.06
2022-11-02T00:34:50.061Z,14.06
2022-11-02T00:35:50.044Z,14.06
2022-11-02T00:36:55.217Z,14.00
2022-11-02T00:37:49.991Z,14.06
2022-11-02T00:38:49.968Z,14.04
2022-11-02T00:39:49.947Z,14.04
2022-11-02T00:40:49.922Z,14.14
2022-11-02T00:41:49.929Z,14.10
2022-11-02T00:42:49.877Z,14.07
2022-11-02T00:43:49.850Z,14.12
2022-11-02T00:44:49.831Z,14.10
2022-11-02T00:45:49.808Z,14.10
2022-11-02T00:46:49.783Z,14.07
2022-11-02T00:47:49.760Z,14.09
2022-11-02T00:48:49.746Z,14.18
2022-11-02T00:49:49.717Z,14.21
2022-11-02T00:50:49.689Z,14.24
2022-11-02T00:51:49.674Z,14.10
2022-11-02T00:52:49.642Z,14.15
2022-11-02T00:53:49.626Z,14.21
2022-11-02T00:54:49.602Z,14.09
2022-11-02T00:55:49.574Z,14.04
2022-11-02T00:56:49.621Z,14.06
2022-11-02T00:57:49.550Z,14.03
2022-11-02T00:58:49.509Z,13.95
2022-11-02T00:59:49.487Z,13.92
2022-11-02T01:00:49.460Z,13.91
2022-11-02T01:01:49.572Z,13.96
2022-11-02T01:02:49.598Z,13.91
2022-11-02T01:03:49.396Z,13.92
2022-11-02T01:04:49.364Z,13.92
2022-11-02T01:05:49.343Z,13.91
2022-11-02T01:06:49.319Z,13.91
2022-11-02T01:07:49.302Z,13.92
2022-11-02T01:08:49.279Z,13.89
2022-11-02T01:09:49.252Z,13.82
2022-11-02T01:10:49.230Z,13.87
2022-11-02T01:11:49.206Z,13.85
2022-11-02T01:12:49.181Z,13.85
2022-11-02T01:13:49.179Z,13.84
2022-11-02T01:14:49.133Z,13.84
2022-11-02T01:15:49.118Z,13.84
2022-11-02T01:16:49.092Z,13.78
2022-11-02T01:17:49.071Z,13.73
2022-11-02T01:18:49.047Z,13.82
2022-11-02T01:19:49.023Z,13.85
2022-11-02T01:20:48.998Z,13.87
2022-11-02T01:21:48.979Z,13.78
2022-11-02T01:22:48.955Z,13.85
2022-11-02T01:23:48.930Z,13.84
2022-11-02T01:24:48.914Z,13.87
2022-11-02T01:25:48.884Z,13.87
2022-11-02T01:26:48.862Z,13.84
2022-11-02T01:27:48.840Z,13.87
2022-11-02T01:28:48.818Z,13.91
2022-11-02T01:29:48.813Z,13.92
2022-11-02T01:30:48.768Z,13.79
2022-11-02T01:31:48.742Z,13.87
2022-11-02T01:32:48.723Z,13.85
2022-11-02T01:33:48.698Z,13.92
2022-11-02T01:34:48.673Z,13.95
2022-11-02T01:35:48.663Z,13.92
2022-11-02T01:36:48.629Z,13.92
2022-11-02T01:37:48.607Z,13.97
2022-11-02T01:38:48.583Z,14.02
2022-11-02T01:39:48.559Z,14.03
2022-11-02T01:40:48.539Z,13.96
2022-11-02T01:41:48.518Z,13.96
2022-11-02T01:42:48.488Z,13.99
2022-11-02T01:43:48.478Z,13.99
2022-11-02T01:44:48.450Z,14.00
2022-11-02T01:45:48.441Z,14.03
2022-11-02T01:46:48.396Z,13.96
2022-11-02T01:47:48.375Z,14.00
2022-11-02T01:48:48.354Z,14.09
2022-11-02T01:49:48.330Z,13.97
2022-11-02T01:50:48.307Z,14.02
2022-11-02T01:51:48.287Z,13.92
2022-11-02T01:52:48.261Z,13.96
2022-11-02T01:53:48.237Z,13.97
2022-11-02T01:54:48.213Z,13.97
2022-11-02T01:55:48.204Z,13.95
2022-11-02T01:56:48.373Z,13.96
2022-11-02T01:57:48.148Z,13.95
2022-11-02T01:58:48.122Z,13.95
2022-11-02T01:59:48.097Z,13.88
2022-11-02T02:00:48.076Z,13.95
2022-11-02T02:01:48.273Z,13.87
2022-11-02T02:02:48.116Z,13.92
2022-11-02T02:03:48.009Z,13.85
2022-11-02T02:04:47.982Z,13.85
2022-11-02T02:05:47.959Z,13.87
2022-11-02T02:06:47.936Z,13.84
2022-11-02T02:07:47.916Z,13.85
2022-11-02T02:08:47.890Z,13.82
2022-11-02T02:09:50.414Z,13.87
2022-11-02T02:10:47.847Z,13.82
2022-11-02T02:11:47.822Z,13.85
2022-11-02T02:12:47.801Z,13.84
2022-11-02T02:13:47.776Z,13.81
2022-11-02T02:14:47.757Z,13.75
2022-11-02T02:15:47.732Z,13.87
2022-11-02T02:17:47.702Z,13.73
2022-11-02T02:18:47.663Z,13.73
2022-11-02T02:19:47.642Z,13.77
2022-11-02T02:20:47.616Z,13.75
2022-11-02T02:21:47.598Z,13.75
2022-11-02T02:22:47.564Z,13.75
2022-11-02T02:23:47.546Z,13.66
2022-11-02T02:24:47.523Z,13.67
2022-11-02T02:25:47.496Z,13.64
2022-11-02T02:26:47.474Z,13.75
2022-11-02T02:27:47.451Z,13.81
2022-11-02T02:28:47.427Z,13.67
2022-11-02T02:29:47.405Z,13.75
2022-11-02T02:30:47.389Z,13.69
2022-11-02T02:31:47.358Z,13.70
2022-11-02T02:32:47.335Z,13.63
2022-11-02T02:33:47.338Z,13.64
2022-11-02T02:34:47.286Z,13.67
2022-11-02T02:35:47.265Z,13.70
2022-11-02T02:37:47.220Z,13.59
2022-11-02T02:38:47.198Z,13.63
2022-11-02T02:39:47.177Z,13.67
2022-11-02T02:40:47.151Z,13.64
2022-11-02T02:41:47.133Z,13.67
2022-11-02T02:42:47.107Z,13.60
2022-11-02T02:43:47.087Z,13.69
2022-11-02T02:44:47.064Z,13.69
2022-11-02T02:45:47.042Z,13.66
2022-11-02T02:46:48.290Z,13.60
2022-11-02T02:47:46.990Z,13.70
2022-11-02T02:48:46.964Z,13.67
2022-11-02T02:49:46.971Z,13.60
2022-11-02T02:50:46.916Z,13.48
2022-11-02T02:51:46.896Z,13.62
2022-11-02T02:52:46.872Z,13.62
2022-11-02T02:53:46.851Z,13.64
2022-11-02T02:54:46.830Z,13.59
2022-11-02T02:55:46.806Z,13.55
2022-11-02T02:57:46.777Z,13.55
2022-11-02T02:58:46.769Z,13.60
2022-11-02T02:59:46.716Z,13.60
2022-11-02T03:00:46.688Z,13.60
2022-11-02T03:01:46.878Z,13.60
2022-11-02T03:02:46.670Z,13.60
2022-11-02T03:03:46.618Z,13.60
2022-11-02T03:04:46.600Z,13.70
2022-11-02T03:05:46.594Z,13.67
2022-11-02T03:06:46.549Z,13.67
2022-11-02T03:07:46.530Z,13.60
2022-11-02T03:08:46.501Z,13.62
2022-11-02T03:09:46.479Z,13.60
2022-11-02T03:10:46.459Z,13.62
2022-11-02T03:11:46.440Z,13.57
2022-11-02T03:12:46.412Z,13.51
2022-11-02T03:13:46.385Z,13.55
2022-11-02T03:14:46.363Z,13.59
2022-11-02T03:15:46.339Z,13.62
2022-11-02T03:16:46.383Z,13.59
2022-11-02T03:17:46.295Z,13.60
2022-11-02T03:18:46.270Z,13.57
2022-11-02T03:19:46.248Z,13.52
2022-11-02T03:20:46.222Z,13.63
2022-11-02T03:21:46.226Z,13.54
2022-11-02T03:22:46.177Z,13.60
2022-11-02T03:23:46.157Z,13.62
2022-11-02T03:24:46.135Z,13.63
2022-11-02T03:25:46.112Z,13.62
2022-11-02T03:26:46.084Z,13.62
2022-11-02T03:27:46.066Z,13.62
2022-11-02T03:28:46.035Z,13.59
2022-11-02T03:29:46.014Z,13.57
2022-11-02T03:30:45.991Z,13.51
2022-11-02T03:31:45.983Z,13.60
2022-11-02T03:32:45.945Z,13.60
2022-11-02T03:33:45.920Z,13.59
2022-11-02T03:34:45.900Z,13.63
2022-11-02T03:35:45.873Z,13.67
2022-11-02T03:36:45.849Z,13.69
2022-11-02T03:37:45.853Z,13.70
2022-11-02T03:38:45.806Z,13.69
2022-11-02T03:39:45.783Z,13.70
2022-11-02T03:40:45.760Z,13.70
2022-11-02T03:41:45.736Z,13.64
2022-11-02T03:42:45.719Z,13.69
2022-11-02T03:43:45.696Z,13.71
2022-11-02T03:44:45.662Z,13.69
2022-11-02T03:45:45.641Z,13.63
2022-11-02T03:46:45.625Z,13.70
2022-11-02T03:47:45.604Z,13.78
2022-11-02T03:48:45.576Z,13.69
2022-11-02T03:49:45.550Z,13.78
2022-11-02T03:50:45.524Z,13.71
2022-11-02T03:51:45.511Z,13.69
2022-11-02T03:52:45.481Z,13.69
2022-11-02T03:53:45.475Z,13.78
2022-11-02T03:54:45.432Z,13.73
2022-11-02T03:55:45.409Z,13.70
2022-11-02T03:56:45.386Z,13.73
2022-11-02T03:57:45.363Z,13.70
2022-11-02T03:58:45.344Z,13.67
2022-11-02T03:59:45.315Z,13.78
2022-11-02T04:00:45.296Z,13.87
2022-11-02T04:01:45.369Z,13.81
2022-11-02T04:02:45.328Z,13.75
2022-11-02T04:03:45.230Z,13.84
2022-11-02T04:04:45.200Z,13.82
2022-11-02T04:05:45.188Z,13.78
2022-11-02T04:06:45.153Z,13.78
2022-11-02T04:07:49.377Z,13.82
2022-11-02T04:08:45.107Z,13.85
2022-11-02T04:09:45.104Z,13.79
2022-11-02T04:10:45.067Z,13.71
2022-11-02T04:11:45.040Z,13.85
2022-11-02T04:12:45.015Z,13.85
2022-11-02T04:13:44.995Z,13.87
2022-11-02T04:14:44.967Z,13.82
2022-11-02T04:15:44.945Z,13.82
2022-11-02T04:16:44.921Z,13.85
2022-11-02T04:17:44.902Z,13.87
2022-11-02T04:18:44.877Z,13.85
2022-11-02T04:19:48.689Z,13.85
2022-11-02T04:20:44.826Z,13.84
2022-11-02T04:21:44.806Z,13.84
2022-11-02T04:22:44.782Z,13.85
2022-11-02T04:23:44.758Z,13.84
2022-11-02T04:24:44.737Z,13.84
2022-11-02T04:25:44.731Z,13.85
2022-11-02T04:26:44.690Z,13.84
2022-11-02T04:27:44.673Z,13.84
2022-11-02T04:28:44.645Z,13.87
2022-11-02T04:29:44.625Z,13.96
2022-11-02T04:30:44.601Z,13.85
2022-11-02T04:31:44.577Z,13.81
2022-11-02T04:32:44.552Z,13.87
2022-11-02T04:33:44.532Z,13.82
2022-11-02T04:34:44.511Z,13.85
2022-11-02T04:35:44.486Z,13.84
2022-11-02T04:36:44.458Z,13.87
2022-11-02T04:37:44.437Z,13.84
2022-11-02T04:38:44.412Z,13.73
2022-11-02T04:39:44.389Z,13.67
2022-11-02T04:40:44.365Z,13.70
2022-11-02T04:41:44.392Z,13.71
2022-11-02T04:42:44.326Z,13.71
2022-11-02T04:43:44.300Z,13.70
2022-11-02T04:44:44.271Z,13.67
2022-11-02T04:45:44.249Z,13.70
2022-11-02T04:46:44.239Z,13.71
2022-11-02T04:47:44.224Z,13.71
2022-11-02T04:48:44.202Z,13.71
2022-11-02T04:49:44.164Z,13.78
2022-11-02T04:50:44.134Z,13.70
2022-11-02T04:51:47.128Z,13.81
2022-11-02T04:52:44.095Z,13.73
2022-11-02T04:53:44.064Z,13.70
2022-11-02T04:54:44.046Z,13.70
2022-11-02T04:55:44.020Z,13.70
2022-11-02T04:56:43.992Z,13.70
2022-11-02T04:57:43.992Z,13.82
2022-11-02T04:58:43.946Z,13.79
2022-11-02T04:59:43.924Z,13.73
2022-11-02T05:00:43.906Z,13.81
2022-11-02T05:01:44.000Z,13.70
2022-11-02T05:02:43.957Z,13.78
2022-11-02T05:03:43.830Z,13.70
2022-11-02T05:04:43.807Z,13.70
2022-11-02T05:05:43.787Z,13.82
2022-11-02T05:06:43.765Z,13.70
2022-11-02T05:07:43.742Z,13.71
2022-11-02T05:08:43.719Z,13.70
2022-11-02T05:09:43.700Z,13.71
2022-11-02T05:10:43.673Z,13.82
2022-11-02T05:11:43.644Z,13.75
2022-11-02T05:12:43.624Z,13.81
2022-11-02T05:13:43.633Z,13.81
2022-11-02T05:14:43.575Z,13.75
2022-11-02T05:15:43.558Z,13.85
2022-11-02T05:16:43.534Z,13.69
2022-11-02T05:17:43.505Z,13.73
2022-11-02T05:18:43.488Z,13.79
2022-11-02T05:19:43.460Z,13.67
2022-11-02T05:20:43.440Z,13.66
2022-11-02T05:21:43.418Z,13.77
2022-11-02T05:22:43.388Z,13.73
2022-11-02T05:23:43.368Z,13.71
2022-11-02T05:24:43.345Z,13.70
2022-11-02T05:25:43.317Z,13.67
2022-11-02T05:26:43.297Z,13.66
2022-11-02T05:27:43.271Z,13.62
2022-11-02T05:28:43.253Z,13.66
2022-11-02T05:29:43.252Z,13.63
2022-11-02T05:30:43.199Z,13.62
2022-11-02T05:31:43.182Z,13.66
2022-11-02T05:32:43.157Z,13.67
2022-11-02T05:33:43.133Z,13.60
2022-11-02T05:34:43.116Z,13.54
2022-11-02T05:35:43.086Z,13.54
2022-11-02T05:36:43.062Z,13.59
2022-11-02T05:37:43.041Z,13.54
2022-11-02T05:38:43.019Z,13.55
2022-11-02T05:39:45.122Z,13.51
2022-11-02T05:40:42.965Z,13.55
2022-11-02T05:41:42.942Z,13.45
2022-11-02T05:42:42.923Z,13.60
2022-11-02T05:43:42.901Z,13.44
2022-11-02T05:44:42.875Z,13.41
2022-11-02T05:45:42.871Z,13.45
2022-11-02T05:46:42.831Z,13.42
2022-11-02T05:47:42.803Z,13.42
2022-11-02T05:48:42.788Z,13.42
2022-11-02T05:49:42.756Z,13.45
2022-11-02T05:50:42.731Z,13.48
2022-11-02T05:51:42.715Z,13.39
2022-11-02T05:52:42.685Z,13.49
2022-11-02T05:53:42.669Z,13.41
2022-11-02T05:54:42.645Z,13.45
2022-11-02T05:55:42.627Z,13.42
2022-11-02T05:56:42.595Z,13.46
2022-11-02T05:57:42.578Z,13.41
2022-11-02T05:58:42.624Z,13.42
2022-11-02T05:59:43.938Z,13.39
2022-11-02T06:00:42.507Z,13.42
2022-11-02T06:01:42.564Z,13.49
2022-11-02T06:02:42.459Z,13.42
2022-11-02T06:03:42.429Z,13.39
2022-11-02T06:04:42.407Z,13.42
2022-11-02T06:05:42.444Z,13.41
2022-11-02T06:06:42.359Z,13.42
2022-11-02T06:07:42.335Z,13.39
2022-11-02T06:08:42.319Z,13.36
2022-11-02T06:09:42.289Z,13.39
2022-11-02T06:10:42.264Z,13.39
2022-11-02T06:11:42.244Z,13.41
2022-11-02T06:12:42.233Z,13.41
2022-11-02T06:13:42.201Z,13.41
2022-11-02T06:14:42.180Z,13.45
2022-11-02T06:15:42.155Z,13.39
2022-11-02T06:16:42.128Z,13.39
2022-11-02T06:17:42.123Z,13.36
2022-11-02T06:18:42.081Z,13.33
2022-11-02T06:19:42.056Z,13.26
2022-11-02T06:20:42.035Z,13.36
2022-11-02T06:21:44.466Z,13.41
2022-11-02T06:22:41.984Z,13.44
2022-11-02T06:23:41.964Z,13.46
2022-11-02T06:24:41.942Z,13.39
2022-11-02T06:25:41.916Z,13.39
2022-11-02T06:26:41.887Z,13.42
2022-11-02T06:27:45.832Z,13.44
2022-11-02T06:28:41.843Z,13.46
2022-11-02T06:29:41.821Z,13.44
2022-11-02T06:30:41.795Z,13.46
2022-11-02T06:31:41.773Z,13.41
2022-11-02T06:32:41.748Z,13.39
2022-11-02T06:33:41.750Z,13.45
2022-11-02T06:34:41.710Z,13.44
2022-11-02T06:35:41.680Z,13.44
2022-11-02T06:36:41.657Z,13.41
2022-11-02T06:37:41.634Z,13.48
2022-11-02T06:38:41.611Z,13.48
2022-11-02T06:39:41.585Z,13.41
2022-11-02T06:40:41.560Z,13.41
2022-11-02T06:41:41.536Z,13.42
2022-11-02T06:42:45.233Z,13.41
2022-11-02T06:43:41.497Z,13.45
2022-11-02T06:44:41.472Z,13.46
2022-11-02T06:45:41.443Z,13.49
2022-11-02T06:46:41.432Z,13.52
2022-11-02T06:47:41.396Z,13.46
2022-11-02T06:48:41.378Z,13.64
2022-11-02T06:49:41.393Z,13.52
2022-11-02T06:50:41.332Z,13.54
2022-11-02T06:51:41.309Z,13.55
2022-11-02T06:52:41.281Z,13.51
2022-11-02T06:53:41.256Z,13.52
2022-11-02T06:54:41.242Z,13.49
2022-11-02T06:55:41.214Z,13.52
2022-11-02T06:56:41.188Z,13.46
2022-11-02T06:57:41.162Z,13.45
2022-11-02T06:58:41.147Z,13.46
2022-11-02T06:59:41.119Z,13.44
2022-11-02T07:00:41.132Z,13.46
2022-11-02T07:01:41.334Z,13.39
2022-11-02T07:02:41.047Z,13.44
2022-11-02T07:03:41.022Z,13.38
2022-11-02T07:04:40.997Z,13.44
2022-11-02T07:05:40.992Z,13.44
2022-11-02T07:06:40.954Z,13.41
2022-11-02T07:07:40.927Z,13.45
2022-11-02T07:08:40.903Z,13.48
2022-11-02T07:09:40.878Z,13.39
2022-11-02T07:10:40.862Z,13.46
2022-11-02T07:11:40.840Z,13.44
2022-11-02T07:12:40.810Z,13.45
2022-11-02T07:13:40.788Z,13.36
2022-11-02T07:14:40.766Z,13.39
2022-11-02T07:15:40.747Z,13.36
2022-11-02T07:16:40.715Z,13.36
2022-11-02T07:17:40.690Z,13.33
2022-11-02T07:18:40.669Z,13.48
2022-11-02T07:19:40.644Z,13.33
2022-11-02T07:20:40.618Z,13.30
2022-11-02T07:21:42.472Z,13.33
2022-11-02T07:22:40.571Z,13.36
2022-11-02T07:23:40.548Z,13.39
2022-11-02T07:24:40.532Z,13.25
2022-11-02T07:25:40.505Z,13.28
2022-11-02T07:26:40.479Z,13.30
2022-11-02T07:27:40.456Z,13.19
2022-11-02T07:28:40.435Z,13.26
2022-11-02T07:29:40.411Z,13.30
2022-11-02T07:30:40.384Z,13.32
2022-11-02T07:31:40.360Z,13.26
2022-11-02T07:32:40.341Z,13.36
2022-11-02T07:33:40.325Z,13.36
2022-11-02T07:34:40.293Z,13.38
2022-11-02T07:35:40.264Z,13.33
2022-11-02T07:36:40.244Z,13.48
2022-11-02T07:37:40.247Z,13.41
2022-11-02T07:38:40.210Z,13.42
2022-11-02T07:39:40.185Z,13.42
2022-11-02T07:40:40.155Z,13.55
2022-11-02T07:41:40.141Z,13.42
2022-11-02T07:42:40.104Z,13.44
2022-11-02T07:43:43.155Z,13.41
2022-11-02T07:44:40.059Z,13.42
2022-11-02T07:45:40.035Z,13.38
2022-11-02T07:46:40.014Z,13.46
2022-11-02T07:47:39.986Z,13.44
2022-11-02T07:48:39.958Z,13.44
2022-11-02T07:49:39.938Z,13.42
2022-11-02T07:50:39.914Z,13.45
2022-11-02T07:51:39.890Z,13.48
2022-11-02T07:52:39.865Z,13.45
2022-11-02T07:53:39.876Z,13.42
2022-11-02T07:54:44.425Z,13.45
2022-11-02T07:55:39.799Z,13.42
2022-11-02T07:56:39.793Z,13.42
2022-11-02T07:57:39.750Z,13.48
2022-11-02T07:58:39.730Z,13.45
2022-11-02T07:59:39.698Z,13.46
2022-11-02T08:00:39.680Z,13.45
2022-11-02T08:01:39.730Z,13.41
2022-11-02T08:02:39.693Z,13.44
2022-11-02T08:03:39.607Z,13.42
2022-11-02T08:04:43.824Z,13.44
2022-11-02T08:05:39.558Z,13.49
2022-11-02T08:06:39.539Z,13.48
2022-11-02T08:07:39.511Z,13.42
2022-11-02T08:08:39.488Z,13.42
2022-11-02T08:09:39.497Z,13.41
2022-11-02T08:10:40.569Z,13.44
2022-11-02T08:11:39.423Z,13.41
2022-11-02T08:12:39.397Z,13.51
2022-11-02T08:13:39.369Z,13.42
2022-11-02T08:14:39.346Z,13.42
2022-11-02T08:15:39.336Z,13.44
2022-11-02T08:16:39.301Z,13.44
2022-11-02T08:17:39.278Z,13.45
2022-11-02T08:18:39.254Z,13.41
2022-11-02T08:19:39.228Z,13.49
2022-11-02T08:20:39.209Z,13.41
2022-11-02T08:21:39.183Z,13.45
2022-11-02T08:22:39.158Z,13.45
2022-11-02T08:23:39.137Z,13.42
2022-11-02T08:24:39.114Z,13.46
2022-11-02T08:25:39.108Z,13.42
2022-11-02T08:26:41.046Z,13.46
2022-11-02T08:27:39.051Z,13.44
2022-11-02T08:28:39.020Z,13.46
2022-11-02T08:29:38.995Z,13.44
2022-11-02T08:30:38.968Z,13.46
2022-11-02T08:31:38.954Z,13.55
2022-11-02T08:32:38.932Z,13.45
2022-11-02T08:33:38.898Z,13.55
2022-11-02T08:34:38.880Z,13.48
2022-11-02T08:35:38.854Z,13.54
2022-11-02T08:36:38.843Z,13.59
2022-11-02T08:37:38.805Z,13.62
2022-11-02T08:38:38.781Z,13.46
2022-11-02T08:39:38.760Z,13.54
2022-11-02T08:40:38.737Z,13.60
2022-11-02T08:41:38.732Z,13.59
2022-11-02T08:42:38.694Z,13.55
2022-11-02T08:43:38.665Z,13.62
2022-11-02T08:44:42.329Z,13.57
2022-11-02T08:46:12.692Z,13.60
2022-11-02T08:46:38.597Z,13.46
2022-11-02T08:47:38.571Z,13.59
2022-11-02T08:48:38.547Z,13.54
2022-11-02T08:49:38.524Z,13.46
2022-11-02T08:50:38.496Z,13.49
2022-11-02T08:51:38.478Z,13.44
2022-11-02T08:52:40.740Z,13.44
2022-11-02T08:53:38.435Z,13.52
2022-11-02T08:54:38.407Z,13.46
2022-11-02T08:55:38.388Z,13.60
2022-11-02T08:56:38.360Z,13.54
2022-11-02T08:57:38.360Z,13.57
2022-11-02T08:58:38.315Z,13.59
2022-11-02T08:59:38.289Z,13.60
2022-11-02T09:00:38.266Z,13.66
2022-11-02T09:01:38.327Z,13.66
2022-11-02T09:02:38.343Z,13.70
2022-11-02T09:03:38.199Z,13.77
2022-11-02T09:04:38.172Z,13.78
2022-11-02T09:05:38.148Z,13.78
2022-11-02T09:06:38.125Z,13.84
2022-11-02T09:07:38.111Z,13.78
2022-11-02T09:08:38.084Z,13.82
2022-11-02T09:09:38.054Z,13.78
2022-11-02T09:10:38.043Z,13.81
2022-11-02T09:11:38.013Z,13.77
2022-11-02T09:12:37.986Z,13.78
2022-11-02T09:13:38.034Z,13.81
2022-11-02T09:14:37.941Z,13.71
2022-11-02T09:15:37.924Z,13.81
2022-11-02T09:16:41.407Z,13.64
2022-11-02T09:17:37.872Z,13.69
2022-11-02T09:18:37.846Z,13.63
2022-11-02T09:19:37.829Z,13.70
2022-11-02T09:20:37.799Z,13.73
2022-11-02T09:21:37.777Z,13.70
2022-11-02T09:22:37.755Z,13.78
2022-11-02T09:23:37.733Z,13.79
2022-11-02T09:24:37.707Z,13.79
2022-11-02T09:25:37.686Z,13.85
2022-11-02T09:26:37.659Z,13.89
2022-11-02T09:27:37.639Z,13.81
2022-11-02T09:28:37.619Z,13.84
2022-11-02T09:29:37.613Z,13.79
2022-11-02T09:30:37.569Z,13.92
2022-11-02T09:31:37.544Z,13.97
2022-11-02T09:32:37.517Z,13.97
2022-11-02T09:33:37.505Z,14.03
2022-11-02T09:34:37.476Z,14.04
2022-11-02T09:35:37.459Z,14.04
2022-11-02T09:36:37.427Z,14.03
2022-11-02T09:37:37.407Z,14.03
2022-11-02T09:38:37.379Z,14.09
2022-11-02T09:39:37.358Z,14.10
2022-11-02T09:40:37.332Z,14.09
2022-11-02T09:41:37.313Z,13.92
2022-11-02T09:42:37.285Z,14.03
2022-11-02T09:43:37.268Z,14.00
2022-11-02T09:44:37.246Z,14.00
2022-11-02T09:45:37.415Z,14.06
2022-11-02T09:46:39.959Z,14.06
2022-11-02T09:48:37.157Z,13.92
2022-11-02T09:49:37.122Z,14.02
2022-11-02T09:50:37.100Z,14.04
2022-11-02T09:51:37.082Z,14.02
2022-11-02T09:52:37.064Z,14.06
2022-11-02T09:53:37.037Z,14.02
2022-11-02T09:54:37.008Z,14.03
2022-11-02T09:55:37.030Z,13.95
2022-11-02T09:56:36.963Z,13.92
2022-11-02T09:57:36.944Z,13.92
2022-11-02T09:58:36.931Z,13.97
2022-11-02T09:59:36.895Z,14.00
2022-11-02T10:00:36.868Z,13.96
2022-11-02T10:01:36.943Z,14.03
2022-11-02T10:02:36.913Z,14.02
2022-11-02T10:03:36.801Z,13.99
2022-11-02T10:04:36.836Z,13.91
2022-11-02T10:05:36.816Z,13.96
2022-11-02T10:06:36.732Z,14.00
2022-11-02T10:07:36.707Z,13.96
2022-11-02T10:08:36.682Z,13.99
2022-11-02T10:09:36.661Z,13.99
2022-11-02T10:10:36.636Z,13.99
2022-11-02T10:12:36.591Z,14.10
2022-11-02T10:13:36.576Z,14.17
2022-11-02T10:14:36.543Z,14.22
2022-11-02T10:15:36.525Z,14.20
2022-11-02T10:16:36.496Z,14.22
2022-11-02T10:17:36.498Z,14.29
2022-11-02T10:18:36.464Z,14.24
2022-11-02T10:19:36.431Z,14.24
2022-11-02T10:20:36.406Z,14.21
2022-11-02T10:21:36.381Z,14.24
2022-11-02T10:22:36.358Z,14.25
2022-11-02T10:23:36.338Z,14.21
2022-11-02T10:24:36.308Z,14.21
2022-11-02T10:25:36.353Z,14.18
2022-11-02T10:26:36.270Z,14.20
2022-11-02T10:27:36.286Z,14.24
2022-11-02T10:28:36.224Z,14.20
2022-11-02T10:29:36.206Z,14.25
2022-11-02T10:30:36.174Z,14.22
2022-11-02T10:31:36.158Z,14.20
2022-11-02T10:32:36.165Z,14.15
2022-11-02T10:33:36.128Z,14.15
2022-11-02T10:34:36.083Z,14.15
2022-11-02T10:35:51.311Z,14.24
2022-11-02T10:36:36.034Z,14.22
2022-11-02T10:37:36.014Z,14.24
2022-11-02T10:38:35.992Z,14.22
2022-11-02T10:39:35.963Z,14.36
2022-11-02T10:40:35.939Z,14.35
2022-11-02T10:41:35.923Z,14.40
2022-11-02T10:42:35.898Z,14.57
2022-11-02T10:43:35.871Z,14.55
2022-11-02T10:44:35.849Z,14.55
2022-11-02T10:45:35.884Z,14.55
2022-11-02T10:46:35.804Z,14.47
2022-11-02T10:47:35.785Z,14.54
2022-11-02T10:48:35.751Z,14.54
2022-11-02T10:49:35.755Z,14.57
2022-11-02T10:50:35.710Z,14.55
2022-11-02T10:51:35.690Z,14.60
2022-11-02T10:52:35.663Z,14.55
2022-11-02T10:53:41.173Z,14.61
2022-11-02T10:54:35.621Z,14.64
2022-11-02T10:55:35.603Z,14.62
2022-11-02T10:56:35.571Z,14.60
2022-11-02T10:57:35.549Z,14.61
2022-11-02T10:58:35.529Z,14.52
2022-11-02T10:59:35.510Z,14.54
2022-11-02T11:00:35.534Z,14.51
2022-11-02T11:01:35.493Z,14.68
2022-11-02T11:02:35.440Z,14.69
2022-11-02T11:03:35.414Z,14.73
2022-11-02T11:04:35.391Z,14.81
2022-11-02T11:05:35.411Z,14.96
2022-11-02T11:06:35.344Z,14.89
2022-11-02T11:07:35.321Z,15.06
2022-11-02T11:08:35.293Z,15.13
2022-11-02T11:09:35.277Z,15.17
2022-11-02T11:10:35.251Z,15.13
2022-11-02T11:11:35.230Z,15.16
2022-11-02T11:12:35.211Z,15.14
2022-11-02T11:15:50.450Z,15.17
2022-11-02T11:16:35.127Z,15.20
2022-11-02T11:20:35.022Z,15.01
2022-11-02T11:21:35.031Z,15.01
2022-11-02T11:22:34.978Z,14.92
2022-11-02T11:23:34.961Z,15.01
2022-11-02T11:24:34.984Z,15.01
2022-11-02T11:25:34.911Z,15.02
2022-11-02T11:26:34.887Z,14.94
2022-11-02T11:27:34.875Z,15.02
2022-11-02T11:28:34.843Z,15.03
2022-11-02T11:29:34.827Z,15.02
2022-11-02T11:31:34.773Z,15.17
2022-11-02T11:32:34.761Z,15.14
2022-11-02T11:33:34.730Z,15.11
2022-11-02T11:34:34.708Z,15.14
2022-11-02T11:35:34.686Z,15.16
2022-11-02T11:36:34.662Z,15.17
2022-11-02T11:37:34.667Z,15.14
2022-11-02T11:38:34.619Z,15.16
2022-11-02T11:39:34.594Z,15.13
2022-11-02T11:40:34.566Z,15.02
2022-11-02T11:41:34.557Z,15.11
2022-11-02T11:42:34.519Z,15.13
2022-11-02T11:43:34.503Z,15.21
2022-11-02T11:44:34.475Z,15.16
2022-11-02T11:45:34.457Z,15.19
2022-11-02T11:46:34.430Z,15.17
2022-11-02T11:47:34.410Z,15.17
2022-11-02T11:48:34.388Z,15.16
2022-11-02T11:50:34.341Z,15.23
2022-11-02T11:51:34.322Z,15.19
2022-11-02T11:52:34.299Z,15.23
2022-11-02T11:53:34.296Z,15.20
2022-11-02T11:54:34.252Z,15.23
2022-11-02T11:55:34.227Z,15.23
2022-11-02T11:56:34.210Z,15.17
2022-11-02T11:57:34.365Z,15.06
2022-11-02T11:58:34.162Z,14.94
2022-11-02T11:59:34.145Z,14.98
2022-11-02T12:00:34.119Z,15.07
2022-11-02T12:01:34.281Z,14.94
2022-11-02T12:02:37.983Z,14.99
2022-11-02T12:03:34.047Z,14.91
2022-11-02T12:04:34.031Z,14.78
2022-11-02T12:05:34.006Z,14.73
2022-11-02T12:06:33.984Z,14.78
2022-11-02T12:07:33.956Z,14.81
2022-11-02T12:08:33.930Z,14.70
2022-11-02T12:09:33.950Z,14.80
2022-11-02T12:10:33.894Z,14.73
2022-11-02T12:11:33.866Z,14.78
2022-11-02T12:12:33.842Z,14.81
2022-11-02T12:13:33.824Z,14.73
2022-11-02T12:14:33.791Z,14.83
2022-11-02T12:15:33.772Z,14.94
2022-11-02T12:16:33.751Z,14.92
2022-11-02T12:17:33.726Z,14.94
2022-11-02T12:18:33.709Z,14.91
2022-11-02T12:19:34.269Z,14.98
2022-11-02T12:20:33.660Z,15.03
2022-11-02T12:21:33.637Z,15.06
2022-11-02T12:22:33.615Z,15.03
2022-11-02T12:23:33.590Z,15.03
2022-11-02T12:24:33.560Z,14.99
2022-11-02T12:25:33.563Z,15.06
2022-11-02T12:26:33.520Z,15.13
2022-11-02T12:27:33.502Z,15.17
2022-11-02T12:28:33.478Z,15.16
2022-11-02T12:29:33.461Z,15.13
2022-11-02T12:30:33.440Z,15.17
2022-11-02T12:31:33.409Z,15.14
2022-11-02T12:32:33.380Z,15.21
2022-11-02T12:33:33.358Z,15.13
2022-11-02T12:34:33.344Z,15.16
2022-11-02T12:35:33.444Z,15.17
2022-11-02T12:36:33.298Z,15.17
2022-11-02T12:37:40.885Z,15.13
2022-11-02T12:38:33.255Z,15.14
2022-11-02T12:39:33.233Z,15.19
2022-11-02T12:40:33.202Z,15.16
2022-11-02T12:41:33.194Z,15.25
2022-11-02T12:42:33.167Z,15.28
2022-11-02T12:43:33.139Z,15.28
2022-11-02T12:44:33.111Z,15.27
2022-11-02T12:45:36.391Z,15.41
2022-11-02T12:46:38.301Z,15.41
2022-11-02T12:47:33.049Z,15.38
2022-11-02T12:48:33.021Z,15.39
2022-11-02T12:49:35.898Z,15.49
2022-11-02T12:50:32.976Z,15.47
2022-11-02T12:51:32.958Z,15.36
2022-11-02T12:52:32.928Z,15.32
2022-11-02T12:53:32.915Z,15.20
2022-11-02T12:54:35.593Z,15.20
2022-11-02T12:55:38.169Z,15.25
2022-11-02T12:56:32.836Z,15.29
2022-11-02T12:57:32.841Z,15.21
2022-11-02T12:58:32.793Z,15.31
2022-11-02T12:59:32.771Z,15.25
2022-11-02T13:00:32.766Z,15.20
2022-11-02T13:01:32.932Z,15.27
2022-11-02T13:02:32.713Z,15.17
2022-11-02T13:03:32.683Z,15.17
2022-11-02T13:04:35.480Z,15.17